createdAt,value
2018-12-06T00:02:02.297Z,22.90
2018-12-06T00:04:36.235Z,24.30
2018-12-06T00:29:32.814Z,26.03
2018-12-06T00:32:06.907Z,22.33
2018-12-06T00:34:40.882Z,24.67
2018-12-06T00:37:14.962Z,27.63
2018-12-06T00:39:48.919Z,25.70
2018-12-06T00:42:22.938Z,37.33
2018-12-06T00:45:01.507Z,22.67
2018-12-06T00:47:35.553Z,20.63
2018-12-06T00:50:09.632Z,22.63
2018-12-06T00:52:43.719Z,21.57
2018-12-06T00:55:17.614Z,21.30
2018-12-06T00:57:51.616Z,25.23
2018-12-06T01:00:25.745Z,22.00
2018-12-06T01:02:59.768Z,25.83
2018-12-06T01:05:34.142Z,27.10
2018-12-06T01:08:08.245Z,22.87
2018-12-06T01:10:42.329Z,30.77
2018-12-06T01:13:16.306Z,32.10
2018-12-06T01:15:50.428Z,25.50
2018-12-06T01:18:24.592Z,27.10
2018-12-06T01:20:59.089Z,29.70
2018-12-06T01:23:33.211Z,29.37
2018-12-06T01:26:07.408Z,23.87
2018-12-06T01:28:41.522Z,29.33
2018-12-06T01:31:15.861Z,27.00
2018-12-06T01:33:50.045Z,28.77
2018-12-06T01:36:24.085Z,27.20
2018-12-06T01:38:58.375Z,27.63
2018-12-06T01:41:32.535Z,35.60
2018-12-06T01:44:06.615Z,27.83
2018-12-06T01:46:40.915Z,34.77
2018-12-06T01:49:15.047Z,27.03
2018-12-06T01:51:49.517Z,28.27
2018-12-06T01:54:23.815Z,28.07
2018-12-06T01:56:58.044Z,28.77
2018-12-06T01:59:32.309Z,26.40
2018-12-06T02:02:06.566Z,37.17
2018-12-06T02:04:40.765Z,37.70
2018-12-06T02:07:14.898Z,31.80
2018-12-06T02:09:48.973Z,33.00
2018-12-06T02:12:23.235Z,27.90
2018-12-06T02:14:57.399Z,29.30
2018-12-06T02:17:31.592Z,27.70
2018-12-06T02:20:05.999Z,30.63
2018-12-06T02:22:40.130Z,26.20
2018-12-06T02:25:14.243Z,26.37
2018-12-06T02:27:48.905Z,27.90
2018-12-06T02:30:23.127Z,29.43
2018-12-06T02:32:57.257Z,29.20
2018-12-06T02:35:31.510Z,29.50
2018-12-06T02:38:05.573Z,31.50
2018-12-06T02:40:39.875Z,31.10
2018-12-06T02:43:17.112Z,34.30
2018-12-06T02:45:51.420Z,30.27
2018-12-06T02:48:26.037Z,26.50
2018-12-06T02:51:00.210Z,29.77
2018-12-06T02:53:34.593Z,31.93
2018-12-06T02:56:08.962Z,27.00
2018-12-06T02:58:43.133Z,28.63
2018-12-06T03:01:17.239Z,26.23
2018-12-06T03:03:51.353Z,28.40
2018-12-06T03:06:25.554Z,33.43
2018-12-06T03:08:59.821Z,25.43
2018-12-06T03:11:34.196Z,27.57
2018-12-06T03:14:12.177Z,24.13
2018-12-06T03:16:46.280Z,26.97
2018-12-06T03:19:20.629Z,23.53
2018-12-06T03:21:54.895Z,24.40
2018-12-06T03:24:33.601Z,23.50
2018-12-06T03:27:08.016Z,27.93
2018-12-06T03:29:42.217Z,23.23
2018-12-06T03:32:16.498Z,27.07
2018-12-06T03:34:51.103Z,26.33
2018-12-06T03:37:25.393Z,24.97
2018-12-06T03:39:59.456Z,28.30
2018-12-06T03:42:33.909Z,19.30
2018-12-06T03:45:08.097Z,22.03
2018-12-06T03:47:42.509Z,26.50
2018-12-06T03:50:16.761Z,20.00
2018-12-06T03:52:50.948Z,28.60
2018-12-06T03:55:25.273Z,21.73
2018-12-06T03:57:59.701Z,23.93
2018-12-06T04:00:34.026Z,22.60
2018-12-06T04:03:08.254Z,24.97
2018-12-06T04:05:42.573Z,19.93
2018-12-06T04:08:16.803Z,20.40
2018-12-06T04:10:51.219Z,22.37
2018-12-06T04:13:25.486Z,20.70
2018-12-06T04:16:00.480Z,16.00
2018-12-06T04:18:34.689Z,20.90
2018-12-06T04:21:08.753Z,18.80
2018-12-06T04:23:43.199Z,17.13
2018-12-06T04:26:17.691Z,15.83
2018-12-06T04:28:52.043Z,16.50
2018-12-06T04:31:26.438Z,15.60
2018-12-06T04:34:00.814Z,14.87
2018-12-06T04:36:35.338Z,15.60
2018-12-06T04:39:09.631Z,15.20
2018-12-06T04:41:43.906Z,15.07
2018-12-06T04:44:18.604Z,10.77
2018-12-06T04:46:52.880Z,11.83
2018-12-06T04:49:27.299Z,14.30
2018-12-06T04:52:01.698Z,11.27
2018-12-06T04:54:35.881Z,10.03
2018-12-06T04:57:10.153Z,9.50
2018-12-06T04:59:44.475Z,9.07
2018-12-06T05:02:18.644Z,12.90
2018-12-06T05:04:53.759Z,15.83
2018-12-06T05:07:28.169Z,10.07
2018-12-06T05:10:02.815Z,12.30
2018-12-06T05:12:49.176Z,14.57
2018-12-06T05:15:24.549Z,14.70
2018-12-06T05:17:58.889Z,12.07
2018-12-06T05:20:33.733Z,8.73
2018-12-06T05:23:07.983Z,11.67
2018-12-06T05:25:42.264Z,8.00
2018-12-06T05:28:16.592Z,8.50
2018-12-06T05:30:50.839Z,12.87
2018-12-06T05:33:25.818Z,9.27
2018-12-06T05:36:01.757Z,9.30
2018-12-06T05:41:19.339Z,10.97
2018-12-06T05:43:55.493Z,10.13
2018-12-06T05:46:29.871Z,11.13
2018-12-06T05:49:09.833Z,11.07
2018-12-06T05:51:49.463Z,15.10
2018-12-06T05:57:15.558Z,12.50
2018-12-06T05:59:51.702Z,9.30
2018-12-06T06:02:29.712Z,9.27
2018-12-06T06:05:07.104Z,11.37
2018-12-06T06:07:51.299Z,13.33
2018-12-06T23:14:28.591Z,4.93
2018-12-06T23:17:02.465Z,4.03
2018-12-06T23:19:36.554Z,1.70
2018-12-06T23:22:10.593Z,2.80
2018-12-06T23:24:44.730Z,2.13
2018-12-06T23:27:18.594Z,2.67
2018-12-06T23:29:52.522Z,1.60
2018-12-06T23:32:26.672Z,3.03
2018-12-06T23:35:00.724Z,3.67
2018-12-06T23:37:34.655Z,3.60
2018-12-06T23:40:08.613Z,4.53
2018-12-06T23:42:42.517Z,1.90
2018-12-06T23:45:16.573Z,2.90
2018-12-06T23:47:50.477Z,1.87
2018-12-06T23:50:24.475Z,2.90
2018-12-06T23:52:58.492Z,1.70
2018-12-06T23:55:32.389Z,4.03
2018-12-06T23:58:06.286Z,2.50
